地図

経路データ

SID SEASON NUMBER BASIN SUBBASIN NAME ISO_TIME NATURE LAT LON WMO_WIND WMO_PRES WMO_AGENCY TRACK_TYPE DIST2LAND LANDFALL IFLAG USA_AGENCY USA_ATCF_ID USA_LAT USA_LON USA_RECORD USA_STATUS USA_WIND USA_PRES USA_SSHS USA_R34_NE USA_R34_SE USA_R34_SW USA_R34_NW USA_R50_NE USA_R50_SE USA_R50_SW USA_R50_NW USA_R64_NE USA_R64_SE USA_R64_SW USA_R64_NW USA_POCI USA_ROCI USA_RMW USA_EYE TOKYO_LAT TOKYO_LON TOKYO_GRADE TOKYO_WIND TOKYO_PRES TOKYO_R50_DIR TOKYO_R50_LONG TOKYO_R50_SHORT TOKYO_R30_DIR TOKYO_R30_LONG TOKYO_R30_SHORT TOKYO_LAND CMA_LAT CMA_LON CMA_CAT CMA_WIND CMA_PRES HKO_LAT HKO_LON HKO_CAT HKO_WIND HKO_PRES NEWDELHI_LAT NEWDELHI_LON NEWDELHI_GRADE NEWDELHI_WIND NEWDELHI_PRES NEWDELHI_CI NEWDELHI_DP NEWDELHI_POCI REUNION_LAT REUNION_LON REUNION_TYPE REUNION_WIND REUNION_PRES REUNION_TNUM REUNION_CI REUNION_RMW REUNION_R34_NE REUNION_R34_SE REUNION_R34_SW REUNION_R34_NW REUNION_R50_NE REUNION_R50_SE REUNION_R50_SW REUNION_R50_NW REUNION_R64_NE REUNION_R64_SE REUNION_R64_SW REUNION_R64_NW BOM_LAT BOM_LON BOM_TYPE BOM_WIND BOM_PRES BOM_TNUM BOM_CI BOM_RMW BOM_R34_NE BOM_R34_SE BOM_R34_SW BOM_R34_NW BOM_R50_NE BOM_R50_SE BOM_R50_SW BOM_R50_NW BOM_R64_NE BOM_R64_SE BOM_R64_SW BOM_R64_NW BOM_ROCI BOM_POCI BOM_EYE BOM_POS_METHOD BOM_PRES_METHOD NADI_LAT NADI_LON NADI_CAT NADI_WIND NADI_PRES WELLINGTON_LAT WELLINGTON_LON WELLINGTON_WIND WELLINGTON_PRES DS824_LAT DS824_LON DS824_STAGE DS824_WIND DS824_PRES TD9636_LAT TD9636_LON TD9636_STAGE TD9636_WIND TD9636_PRES TD9635_LAT TD9635_LON TD9635_WIND TD9635_PRES TD9635_ROCI NEUMANN_LAT NEUMANN_LON NEUMANN_CLASS NEUMANN_WIND NEUMANN_PRES MLC_LAT MLC_LON MLC_CLASS MLC_WIND MLC_PRES USA_GUST BOM_GUST BOM_GUST_PER REUNION_GUST REUNION_GUST_PER USA_SEAHGT USA_SEARAD_NE USA_SEARAD_SE USA_SEARAD_SW USA_SEARAD_NW STORM_SPEED STORM_DIR
2006007S15182 2006 2 SP MM TAM 2006-01-06 18:00:00 NR -15.0000 181.500 10 1007 nadi main 217 201 ______________ -1 -15.0000 -178.500 -1 10 1007 5 270
2006007S15182 2006 2 SP MM TAM 2006-01-06 21:00:00 NR -15.0000 181.260 main 201 178 _______I______ -1 -15.0000 -178.740 -1 10 1007 5 270
2006007S15182 2006 2 SP MM TAM 2006-01-07 00:00:00 NR -15.0000 181.000 10 1007 nadi main 178 159 ______________ -1 -15.0000 -179.000 -1 10 1007 5 270
2006007S15182 2006 2 SP MM TAM 2006-01-07 03:00:00 NR -15.0000 180.707 main 159 144 _______I______ -1 -15.0000 -179.293 -1 10 1007 6 270
2006007S15182 2006 2 SP MM TAM 2006-01-07 06:00:00 NR -15.0000 180.400 10 1007 nadi main 144 136 ______________ -1 -15.0000 -179.600 -1 10 1007 6 270
2006007S15182 2006 2 SP MM TAM 2006-01-07 09:00:00 NR -15.0000 180.085 main 136 134 _______I______ -1 -15.0000 -179.915 -1 10 1006 6 270
2006007S15182 2006 2 SP MM TAM 2006-01-07 12:00:00 NR -15.0000 179.800 10 1006 nadi main 134 134 ______________ -1 -15.0000 179.800 -1 10 1006 5 270
2006007S15182 2006 2 SP MM TAM 2006-01-07 15:00:00 NR -14.9999 179.600 main 136 136 _______I______ -1 -14.9999 179.600 -1 10 1006 4 270
2006007S15182 2006 2 SP MM TAM 2006-01-07 18:00:00 NR -15.0000 179.400 10 1006 nadi main 140 140 ______________ -1 -15.0000 179.400 -1 10 1006 5 269
2006007S15182 2006 2 SP MM TAM 2006-01-07 21:00:00 NR -15.0076 179.100 main 151 151 _______I______ -1 -15.0076 179.100 -1 12 1006 6 270
2006007S15182 2006 2 SP MM TAM 2006-01-08 00:00:00 NR -15.0000 178.800 15 1006 nadi main 163 163 ______________ -1 -15.0000 178.800 -1 15 1006 5 277
2006007S15182 2006 2 SP MM TAM 2006-01-08 03:00:00 NR -14.9499 178.592 main 183 183 _______I______ -1 -14.9499 178.592 -1 15 1006 4 285
2006007S15182 2006 2 SP MM TAM 2006-01-08 06:00:00 NR -14.9000 178.400 15 1006 nadi main 190 190 ______________ -1 -14.9000 178.400 -1 15 1006 4 277
2006007S15182 2006 2 SP MM TAM 2006-01-08 09:00:00 NR -14.9000 178.150 main 198 198 _______I______ -1 -14.9000 178.150 -1 15 1005 5 270
2006007S15182 2006 2 SP MM TAM 2006-01-08 12:00:00 NR -14.9000 177.900 15 1005 nadi main 211 211 ______________ -1 -14.9000 177.900 -1 15 1005 5 275
2006007S15182 2006 2 SP MM TAM 2006-01-08 15:00:00 NR -14.8575 177.677 main 218 218 _______I______ -1 -14.8575 177.677 -1 15 1005 4 285
2006007S15182 2006 2 SP MM TAM 2006-01-08 18:00:00 NR -14.8000 177.500 15 1005 nadi main 238 238 ______________ -1 -14.8000 177.500 -1 15 1005 3 291
2006007S15182 2006 2 SP MM TAM 2006-01-08 21:00:00 NR -14.7574 177.400 main 243 243 _______I______ -1 -14.7574 177.400 -1 15 1005 2 297
2006007S15182 2006 2 SP MM TAM 2006-01-09 00:00:00 NR -14.7000 177.300 15 1005 nadi main 258 258 ______________ -1 -14.7000 177.300 -1 15 1005 3 297
2006007S15182 2006 2 SP MM TAM 2006-01-09 03:00:00 NR -14.6075 177.100 main 278 278 _______I______ -1 -14.6075 177.100 -1 15 1004 4 297
2006007S15182 2006 2 SP MM TAM 2006-01-09 06:00:00 NR -14.5000 176.900 15 1004 nadi main 300 300 ______________ -1 -14.5000 176.900 -1 15 1004 4 304
2006007S15182 2006 2 SP MM TAM 2006-01-09 09:00:00 NR -14.4000 176.785 main 315 315 _______I______ -1 -14.4000 176.785 -1 15 1004 3 316
2006007S15182 2006 2 SP MM TAM 2006-01-09 12:00:00 NR -14.3000 176.700 15 1004 nadi main 330 330 ______________ -1 -14.3000 176.700 -1 15 1004 3 316
2006007S15182 2006 2 SP MM TAM 2006-01-09 15:00:00 NR -14.2075 176.593 main 346 346 _______I______ -1 -14.2075 176.593 -1 15 1004 3 316
2006007S15182 2006 2 SP MM TAM 2006-01-09 18:00:00 NR -14.1000 176.500 15 1004 nadi main 361 361 ______________ -1 -14.1000 176.500 -1 15 1004 3 332
2006007S15182 2006 2 SP MM TAM 2006-01-09 21:00:00 NR -13.9500 176.450 main 379 379 _______I______ -1 -13.9500 176.450 -1 17 1003 3 343
2006007S15182 2006 2 SP MM TAM 2006-01-10 00:00:00 NR -13.8000 176.400 20 1002 nadi main 395 395 ______________ -1 -13.8000 176.400 -1 20 1002 3 328
2006007S15182 2006 2 SP MM TAM 2006-01-10 03:00:00 NR -13.7075 176.300 main 410 410 _______I______ -1 -13.7075 176.300 -1 20 1002 3 316
2006007S15182 2006 2 SP MM TAM 2006-01-10 06:00:00 NR -13.6000 176.200 20 1002 nadi main 425 425 ______________ -1 -13.6000 176.200 -1 20 1002 4 329
2006007S15182 2006 2 SP MM TAM 2006-01-10 09:00:00 NR -13.4075 176.112 main 450 450 _______I______ -1 -13.4075 176.112 -1 20 1002 4 347
2006007S15182 2006 2 SP MM TAM 2006-01-10 12:00:00 NR -13.2000 176.100 20 1002 nadi main 469 469 ______________ -1 -13.2000 176.100 -1 20 1002 4 12
2006007S15182 2006 2 SP MM TAM 2006-01-10 15:00:00 NR -13.0049 176.190 main 482 481 _______I______ -1 -13.0049 176.190 -1 22 1001 4 44
2006007S15182 2006 2 SP MM TAM 2006-01-10 18:00:00 NR -12.9000 176.400 25 1000 nadi main 481 467 ______________ -1 -12.9000 176.400 -1 25 1000 5 83
2006007S15182 2006 2 SP MM TAM 2006-01-10 21:00:00 NR -12.9475 176.705 main 467 430 _______I______ -1 -12.9475 176.705 -1 25 1000 7 106
2006007S15182 2006 2 SP MM TAM 2006-01-11 00:00:00 NR -13.1000 177.100 25 1000 nadi main 430 392 ______________ -1 -13.1000 177.100 -1 25 1000 8 113
2006007S15182 2006 2 SP MM TAM 2006-01-11 03:00:00 NR -13.2772 177.490 main 392 363 _______I______ -1 -13.2772 177.490 -1 25 999 11 102
2006007S15182 2006 2 SP MM TAM 2006-01-11 06:00:00 TS -13.3333 178.200 25 999 nadi main 363 317 O___________O_ jtwc_sh SH062006 -13.0000 178.600 DB 15 1006 -3 -13.5000 178.000 -1 25 999 -13.0000 178.600 TC 15 14 99
2006007S15182 2006 2 SP MM TAM 2006-01-11 09:00:00 TS -13.5016 178.907 main 317 281 P______I____P_ SH062006 -13.2377 179.065 DB 15 1006 -3 -13.7655 178.750 -1 27 998 -13.2377 179.065 TC 15 13 106
2006007S15182 2006 2 SP MM TAM 2006-01-11 12:00:00 TS -13.7000 179.500 30 997 nadi main 281 257 O___________O_ jtwc_sh SH062006 -13.5000 179.500 DB 15 1006 -3 -14.0000 179.500 -1 30 997 -13.5000 179.500 TC 15 11 112
2006007S15182 2006 2 SP MM TAM 2006-01-11 15:00:00 TS -13.9047 179.922 main 257 237 P______I____P_ SH062006 -13.7998 179.893 DB 17 1005 -3 -14.1145 179.980 -1 30 996 -13.7998 179.893 TC 17 9 118
2006007S15182 2006 2 SP MM TAM 2006-01-11 18:00:00 TS -14.1333 180.333 30 996 nadi main 238 225 O___________O_ jtwc_sh SH062006 -14.1000 -179.700 DB 20 1004 -3 -14.2000 -179.600 -1 30 996 -14.1000 -179.700 TC 20 10 118
2006007S15182 2006 2 SP MM TAM 2006-01-11 21:00:00 TS -14.3573 180.815 main 223 223 P______I____P_ SH062006 -14.3648 -179.245 DB 22 1003 -3 -14.3425 -179.065 -1 32 995 -14.3648 -179.245 TC 22 11 113
2006007S15182 2006 2 SP MM TAM 2006-01-12 00:00:00 TS -14.5615 181.377 35 995 nadi main 240 240 O_______O___O_ jtwc_sh SH062006 -14.6000 -178.700 TD 25 1002 -1 -14.5000 -178.500 -1 35 995 -14.5000 -178.500 35 995 -14.6000 -178.700 TC 25 12 108
2006007S15182 2006 2 SP MM TAM 2006-01-12 03:00:00 TS -14.7251 181.976 main 280 280 P______IP___P_ SH062006 -14.7922 -178.060 TD 25 1002 -1 -14.6347 -177.972 -1 37 992 -14.6375 -177.988 37 992 -14.7922 -178.060 TC 25 13 106
2006007S15182 2006 2 SP MM TAM 2006-01-12 06:00:00 TS -14.9067 182.653 40 990 nadi main 333 333 O_______O___O_ jtwc_sh SH062006 -15.0000 -177.300 TD 25 1002 -1 -14.8000 -177.400 -1 40 990 -14.8000 -177.400 40 990 -15.0000 -177.300 TC 25 15 107
2006007S15182 2006 2 SP MM TAM 2006-01-12 09:00:00 TS -15.1488 183.431 main 394 386 P______IP___P_ SH062006 -15.2849 -176.437 TD 27 1001 -1 -15.0127 -176.700 -1 40 989 -15.0127 -176.700 40 989 -15.2849 -176.437 TC 27 16 109
2006007S15182 2006 2 SP MM TAM 2006-01-12 12:00:00 TS -15.4500 184.250 40 988 nadi main 384 334 O_______O___O_ jtwc_sh SH062006 -15.6000 -175.500 TD 30 1000 -1 -15.3000 -176.000 -1 40 988 -15.3000 -176.000 40 988 -15.6000 -175.500 TC 30 16 112
2006007S15182 2006 2 SP MM TAM 2006-01-12 15:00:00 TS -15.7660 185.012 main 341 315 P______IP___P_ SH062006 -15.8628 -174.505 TD 30 1000 -1 -15.6693 -175.472 -1 42 987 -15.6693 -175.472 42 987 -15.8628 -174.505 TC 30 16 116
2006007S15182 2006 2 SP MM TAM 2006-01-12 18:00:00 TS -16.1500 185.750 45 987 nadi main 309 312 O_______O___O_ jtwc_sh SH062006 -16.2000 -173.600 TD 30 1000 -1 -16.1000 -174.900 -1 45 987 -16.1000 -174.900 45 987 -16.2000 -173.600 TC 30 16 121
2006007S15182 2006 2 SP MM TAM 2006-01-12 21:00:00 TS -16.6046 186.468 main 327 327 P______IP___P_ SH062006 -16.6968 -172.947 TD 32 998 -1 -16.5124 -174.117 -1 45 987 -16.5124 -174.117 45 987 -16.6968 -172.947 TC 32 17 126
2006007S15182 2006 2 SP MM TAM 2006-01-13 00:00:00 TS -17.1500 187.200 45 987 nadi main 370 380 O_______O___O_ jtwc_sh SH062006 -17.3000 -172.400 TS 35 997 0 1003 200 40 -17.0000 -173.200 -1 45 987 -17.0000 -173.200 45 987 -17.3000 -172.400 TC 35 19 127
2006007S15182 2006 2 SP MM TAM 2006-01-13 03:00:00 TS -17.7254 188.034 main 437 437 P______IP___P_ SH062006 -17.8523 -171.806 TS 37 995 0 1003 200 40 -17.5985 -172.126 -1 45 987 -17.5985 -172.126 45 987 -17.8523 -171.806 TC 37 20 130
2006007S15182 2006 2 SP MM TAM 2006-01-13 06:00:00 TS -18.4500 188.800 45 987 nadi main 525 536 O_______O___O_ jtwc_sh SH062006 -18.6000 -171.200 TS 40 994 0 40 40 40 40 1003 200 40 -18.3000 -171.200 -1 45 987 -18.3000 -171.200 45 987 -18.6000 -171.200 TC 40 20 142
2006007S15182 2006 2 SP MM TAM 2006-01-13 09:00:00 TS -19.3034 189.339 main 635 635 P______IP___P_ SH062006 -19.6878 -170.535 TS 40 994 0 40 40 40 40 1003 190 40 -18.9191 -170.786 -1 45 987 -18.9191 -170.786 45 987 -19.6878 -170.535 TC 40 22 155
2006007S15182 2006 2 SP MM TAM 2006-01-13 12:00:00 TS -20.4500 189.800 45 987 nadi main 768 779 O_______O___O_ jtwc_sh SH062006 -21.0000 -169.900 TS 40 994 0 40 40 40 40 1003 180 40 -19.9000 -170.500 -1 45 987 -19.9000 -170.500 45 987 -21.0000 -169.900 TC 40 28 161
2006007S15182 2006 2 SP MM TAM 2006-01-13 15:00:00 TS -21.9701 190.336 main 954 954 P______IP___P_ SH062006 -22.3247 -169.383 TS 37 995 0 40 40 40 40 1003 180 40 -21.6155 -169.946 -1 45 987 -21.6155 -169.946 45 987 -22.3247 -169.383 TC 37 34 163
2006007S15182 2006 2 SP MM TAM 2006-01-13 18:00:00 TS -23.7000 190.900 45 987 nadi main 1154 1154 O_______O___O_ jtwc_sh SH062006 -23.8000 -168.900 TS 35 997 0 40 40 40 40 1003 180 40 -23.6000 -169.300 -1 45 987 -23.6000 -169.300 45 987 -23.8000 -168.900 TC 35 36 163
2006007S15182 2006 2 SP MM TAM 2006-01-13 21:00:00 TS -25.3510 191.473 main 1353 1353 P______IP___P_ SH062006 -25.3875 -168.384 TS 35 997 0 40 40 40 40 1003 180 40 -25.3145 -168.670 -1 45 987 -25.3145 -168.670 45 987 -25.3875 -168.384 TC 35 36 162
2006007S15182 2006 2 SP MM TAM 2006-01-14 00:00:00 TS -27.0923 192.092 45 988 wellington main 1552 1552 O_______O___O_ jtwc_sh SH062006 -27.2000 -167.800 TS 35 997 0 40 40 40 40 1003 180 40 -27.0000 -168.000 -1 45 988 -27.0000 -168.000 45 988 -27.2000 -167.800 TC 35 38 162
2006007S15182 2006 2 SP MM TAM 2006-01-14 03:00:00 TS -28.9842 192.829 main 1632 1571 P______IP___P_ SH062006 -29.2759 -167.096 TS 35 997 0 40 40 40 40 -28.8180 -167.193 -1 42 989 -28.7334 -167.273 42 989 -29.2759 -167.096 TC 35 39 161
2006007S15182 2006 2 SP MM TAM 2006-01-14 06:00:00 MX -30.7857 193.557 40 990 wellington main 1573 1548 O_______O___O_ jtwc_sh SH062006 -31.5000 -166.300 EX 35 997 -4 40 40 40 40 -30.5000 -166.500 -1 40 990 -30.5000 -166.500 40 990 -31.5000 -166.300 TC 35 28 161
2006007S15182 2006 2 SP MM TAM 2006-01-14 09:00:00 NR -31.5999 193.866 main 1550 1491 _______I______ SH062006 EX -4 -31.5999 -166.134 -1 40 990 TC 23 170
2006007S15182 2006 2 SP MM TAM 2006-01-14 12:00:00 NR -33.0000 194.000 main 1486 1397 ______________ -1 -33.0000 -166.000 -1 40 990 38 178
2006007S15182 2006 2 SP MM TAM 2006-01-14 15:00:00 NR -35.4254 194.025 main 1394 1345 _______I______ -1 -35.4254 -165.975 -1 37 991 55 180
2006007S15182 2006 2 SP MM TAM 2006-01-14 18:00:00 NR -38.5000 194.000 main 1345 ______________ -1 -38.5000 -166.000 -1 35 992 62 181

デジタル台風データ・検索

IBTrACS Databaseについて

本データベースは、米国NOAAが公開する1842年以降の世界の熱帯低気圧のベストトラックデータアーカイブInternational Best Track Archive for Climate Stewardship (IBTrACS)を、ウェブで閲覧しやすい形式に変換したものです。

最終更新日:2021-10-08